Time;durP1;ratioP1;P1;durP2;ratioP2;P2;SDS_P1;SDS_P2;PMS_P1;PMS_P2;Temp;Humidity;BMP_temperature;BMP_pressure;BME280_temperature;BME280_humidity;BME280_pressure;Samples;Min_cycle;Max_cycle;Signal;HPM_P1;HPM_P2
2023/10/24 00:00:52;;;;;;;2.35;1.50;;;15.80;75.10;;;;;;5031689;28;20128;-55
2023/10/24 00:03:19;;;;;;;3.72;1.85;;;15.80;75.10;;;;;;5031433;28;20072;-56
2023/10/24 00:05:47;;;;;;;2.53;1.77;;;15.90;75.20;;;;;;5023158;28;20069;-52
2023/10/24 00:08:14;;;;;;;6.60;2.10;;;15.90;75.20;;;;;;5019897;28;20049;-55
2023/10/24 00:10:41;;;;;;;6.05;2.20;;;15.90;75.30;;;;;;5028051;28;20080;-55
2023/10/24 00:13:08;;;;;;;4.43;1.90;;;15.90;75.30;;;;;;5024087;28;20530;-54
2023/10/24 00:15:34;;;;;;;1.50;1.40;;;15.90;75.20;;;;;;5011686;28;20512;-54
2023/10/24 00:18:01;;;;;;;5.10;1.73;;;15.90;75.20;;;;;;5027275;28;20052;-54
2023/10/24 00:20:28;;;;;;;2.38;1.77;;;15.90;75.20;;;;;;5023844;28;20045;-54
2023/10/24 00:22:56;;;;;;;3.20;1.55;;;15.90;75.20;;;;;;5030089;28;20369;-55
2023/10/24 00:25:24;;;;;;;3.58;1.48;;;16.00;75.20;;;;;;5026330;28;20463;-54
2023/10/24 00:27:52;;;;;;;1.70;1.35;;;16.00;75.10;;;;;;5022273;28;20052;-55
2023/10/24 00:30:18;;;;;;;2.25;1.73;;;16.00;75.10;;;;;;5025918;28;20046;-55
2023/10/24 00:32:49;;;;;;;2.85;1.67;;;16.00;75.10;;;;;;5005414;28;20103;-55
2023/10/24 00:35:17;;;;;;;1.50;1.40;;;16.00;75.20;;;;;;5009961;28;20089;-56
2023/10/24 00:37:44;;;;;;;3.03;1.70;;;16.00;75.20;;;;;;5003349;28;20049;-54
2023/10/24 00:40:11;;;;;;;3.15;1.23;;;16.00;75.20;;;;;;5012628;28;20103;-55
2023/10/24 00:42:38;;;;;;;2.25;1.40;;;16.00;75.20;;;;;;5028036;28;20041;-54
2023/10/24 00:45:06;;;;;;;1.92;1.50;;;16.00;75.20;;;;;;5012613;28;20045;-53
2023/10/24 00:47:33;;;;;;;5.60;1.45;;;16.00;75.20;;;;;;5030997;28;20069;-55
2023/10/24 00:50:00;;;;;;;1.92;1.30;;;16.00;75.10;;;;;;5010122;28;20211;-53
2023/10/24 00:52:27;;;;;;;3.08;1.50;;;16.00;75.10;;;;;;5018722;28;20107;-54
2023/10/24 00:54:54;;;;;;;2.22;1.25;;;16.00;75.20;;;;;;5020203;28;20033;-54
2023/10/24 00:57:21;;;;;;;2.53;1.10;;;16.10;75.20;;;;;;5003411;28;20584;-56
2023/10/24 00:59:50;;;;;;;3.80;1.10;;;16.10;75.20;;;;;;5007269;28;20069;-53
2023/10/24 01:02:17;;;;;;;2.13;1.10;;;16.10;75.30;;;;;;5030809;28;20079;-54
2023/10/24 01:04:45;;;;;;;1.65;1.02;;;16.10;75.20;;;;;;5029373;28;20049;-54
2023/10/24 01:07:11;;;;;;;1.23;0.80;;;16.10;75.30;;;;;;5009425;28;20049;-56
2023/10/24 01:09:41;;;;;;;1.65;0.80;;;16.10;75.40;;;;;;5023759;28;20042;-57
2023/10/24 01:12:09;;;;;;;1.05;1.05;;;16.10;75.40;;;;;;5012275;28;20049;-55
2023/10/24 01:14:35;;;;;;;1.10;0.98;;;16.10;75.40;;;;;;5008895;28;20449;-55
2023/10/24 01:17:13;;;;;;;1.52;1.00;;;16.10;75.40;;;;;;5008556;28;20471;-56
2023/10/24 01:19:39;;;;;;;1.17;1.10;;;16.10;75.50;;;;;;5029299;28;20149;-55
2023/10/24 01:22:06;;;;;;;1.38;0.90;;;16.10;75.90;;;;;;5029858;28;20041;-55
2023/10/24 01:24:33;;;;;;;0.80;0.80;;;16.10;75.20;;;;;;5021549;28;20045;-55
2023/10/24 01:27:00;;;;;;;1.10;1.00;;;16.10;75.20;;;;;;5019388;28;20120;-55
2023/10/24 01:29:26;;;;;;;1.35;1.05;;;16.10;75.10;;;;;;5026348;28;20069;-54
2023/10/24 01:31:53;;;;;;;2.03;1.13;;;16.10;75.10;;;;;;5029032;28;20143;-55
2023/10/24 01:34:20;;;;;;;1.42;1.10;;;16.10;74.90;;;;;;5023635;28;20468;-55
2023/10/24 01:36:46;;;;;;;0.95;0.90;;;16.10;74.70;;;;;;5025369;28;20044;-55
2023/10/24 01:39:13;;;;;;;1.67;1.20;;;16.10;74.80;;;;;;5030166;28;20033;-54
2023/10/24 01:41:42;;;;;;;2.20;1.55;;;16.10;74.80;;;;;;5006640;28;20046;-55
2023/10/24 01:44:09;;;;;;;1.55;1.27;;;16.10;74.80;;;;;;5011905;28;20072;-55
2023/10/24 01:46:35;;;;;;;1.90;1.02;;;16.10;74.70;;;;;;5011114;28;20131;-54
2023/10/24 01:49:02;;;;;;;1.40;1.27;;;16.10;74.60;;;;;;5008636;28;20442;-54
2023/10/24 01:51:35;;;;;;;2.90;1.38;;;16.10;74.50;;;;;;5007514;28;20057;-54
2023/10/24 01:54:01;;;;;;;2.20;1.23;;;16.10;74.50;;;;;;5023366;28;20551;-54
2023/10/24 01:56:28;;;;;;;1.10;1.00;;;16.10;74.60;;;;;;5023262;28;20040;-55
2023/10/24 01:58:57;;;;;;;1.65;0.90;;;16.10;74.70;;;;;;5022975;28;20407;-51
2023/10/24 02:01:23;;;;;;;1.30;1.20;;;16.10;74.80;;;;;;5004886;28;20117;-56
2023/10/24 02:03:50;;;;;;;1.33;1.10;;;16.10;74.90;;;;;;5006365;28;20526;-52
2023/10/24 02:06:17;;;;;;;2.72;1.05;;;16.10;74.90;;;;;;5007432;28;20597;-54
2023/10/24 02:08:44;;;;;;;2.30;1.50;;;16.10;74.90;;;;;;5008973;28;20068;-54
2023/10/24 02:11:11;;;;;;;1.30;1.20;;;16.10;75.10;;;;;;5011316;28;20053;-56
2023/10/24 02:13:37;;;;;;;1.27;0.95;;;16.10;75.10;;;;;;5010821;28;20054;-53
2023/10/24 02:16:05;;;;;;;1.20;1.10;;;16.10;75.10;;;;;;5010738;28;20415;-54
2023/10/24 02:18:32;;;;;;;1.45;1.10;;;16.10;74.90;;;;;;5028850;28;20045;-55
2023/10/24 02:20:58;;;;;;;2.55;1.00;;;16.10;74.80;;;;;;5026133;28;20107;-54
2023/10/24 02:23:25;;;;;;;1.25;1.05;;;16.10;74.80;;;;;;5008098;28;20049;-53
2023/10/24 02:25:52;;;;;;;1.33;0.90;;;16.10;74.80;;;;;;5022628;28;20730;-56
2023/10/24 02:28:19;;;;;;;1.02;0.95;;;16.10;74.80;;;;;;5002126;28;20144;-55
2023/10/24 02:30:45;;;;;;;1.70;0.98;;;16.10;74.80;;;;;;5021474;28;20033;-55
2023/10/24 02:33:12;;;;;;;1.63;1.00;;;16.10;74.70;;;;;;5010926;28;20389;-54
2023/10/24 02:35:39;;;;;;;1.65;0.65;;;16.10;74.60;;;;;;5008472;28;20037;-55
2023/10/24 02:38:06;;;;;;;0.80;0.80;;;16.10;74.30;;;;;;5010514;28;20041;-55
2023/10/24 02:40:36;;;;;;;1.20;0.90;;;16.10;74.30;;;;;;5024835;28;20052;-54
2023/10/24 02:43:03;;;;;;;0.90;0.90;;;16.10;74.20;;;;;;5024942;28;20184;-53
2023/10/24 02:45:29;;;;;;;1.45;0.73;;;16.00;74.00;;;;;;5010580;28;20503;-55
2023/10/24 02:47:56;;;;;;;1.10;1.00;;;16.00;74.00;;;;;;5007693;28;20056;-55
2023/10/24 02:50:25;;;;;;;2.28;0.90;;;16.00;73.90;;;;;;5027193;28;20088;-55
2023/10/24 02:52:52;;;;;;;0.80;0.80;;;16.00;73.80;;;;;;5028430;28;20045;-55
2023/10/24 02:55:19;;;;;;;1.48;1.35;;;16.00;73.80;;;;;;5022050;28;20124;-55
2023/10/24 02:57:45;;;;;;;0.85;0.63;;;16.00;73.90;;;;;;5027866;28;20504;-55
2023/10/24 03:00:13;;;;;;;1.23;0.75;;;16.00;73.80;;;;;;5011862;28;20091;-52
2023/10/24 03:02:39;;;;;;;0.50;0.50;;;15.90;73.70;;;;;;5028085;28;20042;-54
2023/10/24 03:05:07;;;;;;;2.25;1.00;;;15.90;73.60;;;;;;5025874;28;20045;-54
2023/10/24 03:07:34;;;;;;;0.65;0.60;;;15.90;73.60;;;;;;5042659;22;20046;-49
2023/10/24 03:10:01;;;;;;;1.02;1.02;;;15.90;73.70;;;;;;5006999;28;20053;-52
2023/10/24 03:12:28;;;;;;;0.80;0.73;;;15.90;73.70;;;;;;4989597;28;20468;-51
2023/10/24 03:14:55;;;;;;;1.67;0.90;;;15.90;73.80;;;;;;4994706;28;20130;-50
2023/10/24 03:17:22;;;;;;;1.13;0.80;;;15.90;73.80;;;;;;5006250;28;20069;-51
2023/10/24 03:19:49;;;;;;;0.80;0.80;;;15.90;73.70;;;;;;5013395;28;20416;-51
2023/10/24 03:22:15;;;;;;;1.45;0.93;;;15.90;73.70;;;;;;4994820;28;20042;-52
2023/10/24 03:24:42;;;;;;;2.10;0.80;;;15.80;73.60;;;;;;4994251;28;20046;-50
2023/10/24 03:27:12;;;;;;;1.38;1.00;;;15.90;73.70;;;;;;5007664;28;20673;-49
2023/10/24 03:29:42;;;;;;;1.48;0.73;;;15.80;73.50;;;;;;5010413;28;20045;-49
2023/10/24 03:32:10;;;;;;;1.92;0.90;;;15.80;73.60;;;;;;4994633;28;20041;-50
2023/10/24 03:34:36;;;;;;;1.00;1.00;;;15.80;73.60;;;;;;4991896;28;20508;-54
2023/10/24 03:37:03;;;;;;;1.42;1.05;;;15.80;73.50;;;;;;4993756;28;20842;-50
2023/10/24 03:39:30;;;;;;;1.23;1.10;;;15.80;73.50;;;;;;5013053;28;20057;-48
2023/10/24 03:41:57;;;;;;;3.85;1.38;;;15.80;73.50;;;;;;5011733;28;20034;-55
2023/10/24 03:44:23;;;;;;;1.40;0.80;;;15.80;73.40;;;;;;5009979;28;20461;-53
2023/10/24 03:46:50;;;;;;;1.35;0.85;;;15.80;73.40;;;;;;5011442;28;20046;-51
2023/10/24 03:49:17;;;;;;;1.05;0.80;;;15.80;73.50;;;;;;5012929;28;20555;-48
2023/10/24 03:51:44;;;;;;;1.25;0.90;;;15.80;73.70;;;;;;5012489;28;20526;-53
2023/10/24 03:54:10;;;;;;;1.10;1.00;;;15.80;73.60;;;;;;5008546;28;20116;-53
2023/10/24 03:56:38;;;;;;;1.65;1.00;;;15.80;73.60;;;;;;5005204;28;20045;-54
2023/10/24 03:59:06;;;;;;;1.73;1.63;;;15.80;73.50;;;;;;5012299;28;20385;-50
2023/10/24 04:01:36;;;;;;;1.10;0.98;;;15.80;73.30;;;;;;5011683;28;20044;-53
2023/10/24 04:04:05;;;;;;;1.92;1.25;;;15.80;73.30;;;;;;5009869;28;20049;-51
2023/10/24 04:06:34;;;;;;;1.58;1.20;;;15.70;73.20;;;;;;5009307;28;20045;-52
2023/10/24 04:09:04;;;;;;;2.63;1.02;;;15.70;73.30;;;;;;5011598;28;20425;-55
2023/10/24 04:11:34;;;;;;;0.82;0.82;;;15.70;73.30;;;;;;5011761;28;20042;-54
2023/10/24 04:14:02;;;;;;;1.35;1.20;;;15.70;73.40;;;;;;5010532;28;20046;-50
2023/10/24 04:16:29;;;;;;;1.45;1.30;;;15.70;73.40;;;;;;5011092;28;20041;-51
2023/10/24 04:18:56;;;;;;;1.58;1.40;;;15.70;73.20;;;;;;5011564;28;20038;-52
2023/10/24 04:21:23;;;;;;;1.77;1.25;;;15.80;73.20;;;;;;5010651;28;20066;-52
2023/10/24 04:23:49;;;;;;;1.90;1.45;;;15.70;73.00;;;;;;5008443;28;20152;-54
2023/10/24 04:26:16;;;;;;;1.90;1.67;;;15.70;73.00;;;;;;5005605;28;20046;-52
2023/10/24 04:28:43;;;;;;;2.83;1.48;;;15.70;73.00;;;;;;5008455;28;20136;-52
2023/10/24 04:31:10;;;;;;;2.65;1.25;;;15.70;73.20;;;;;;5011555;28;20064;-53
2023/10/24 04:33:40;;;;;;;3.20;1.70;;;15.70;73.20;;;;;;5009278;28;20053;-52
2023/10/24 04:36:14;;;;;;;1.83;1.58;;;15.70;73.30;;;;;;5008460;28;20409;-53
2023/10/24 04:38:41;;;;;;;2.00;1.50;;;15.70;73.30;;;;;;5008743;28;20046;-50
2023/10/24 04:41:07;;;;;;;1.83;1.60;;;15.70;73.20;;;;;;5010323;28;20049;-52
2023/10/24 04:43:34;;;;;;;1.58;1.40;;;15.70;73.20;;;;;;5004973;28;20121;-50
2023/10/24 04:46:01;;;;;;;1.90;1.70;;;15.70;73.20;;;;;;5009101;28;20096;-53
2023/10/24 04:48:28;;;;;;;2.05;1.73;;;15.70;73.20;;;;;;5010175;28;20046;-50
2023/10/24 04:50:54;;;;;;;1.50;1.40;;;15.70;73.00;;;;;;4991372;28;20077;-51
2023/10/24 04:53:24;;;;;;;1.90;1.77;;;15.70;73.00;;;;;;5007625;28;20065;-54
2023/10/24 04:55:50;;;;;;;1.98;1.77;;;15.60;72.80;;;;;;5002832;28;20124;-54
2023/10/24 04:58:17;;;;;;;1.85;1.58;;;15.60;72.90;;;;;;5007777;28;20033;-53
2023/10/24 05:00:44;;;;;;;2.03;1.85;;;15.70;73.00;;;;;;5010811;28;20053;-51
2023/10/24 05:03:10;;;;;;;2.70;1.70;;;15.60;72.70;;;;;;5009988;28;20038;-50
2023/10/24 05:05:37;;;;;;;1.67;1.58;;;15.60;72.70;;;;;;5006309;28;20444;-54
2023/10/24 05:08:07;;;;;;;2.83;2.17;;;15.60;72.90;;;;;;5009166;28;20050;-53
2023/10/24 05:10:34;;;;;;;2.00;1.67;;;15.70;73.00;;;;;;5011134;28;20045;-52
2023/10/24 05:13:01;;;;;;;1.77;1.67;;;15.70;72.90;;;;;;5009804;28;20045;-51
2023/10/24 05:15:27;;;;;;;2.75;1.77;;;15.70;72.90;;;;;;5006664;28;20124;-50
2023/10/24 05:17:56;;;;;;;2.55;2.15;;;15.60;72.70;;;;;;5006993;28;20053;-55
2023/10/24 05:20:23;;;;;;;2.75;2.42;;;15.60;72.60;;;;;;5010950;28;20048;-53
2023/10/24 05:22:49;;;;;;;1.90;1.70;;;15.70;72.60;;;;;;4991983;28;20034;-52
2023/10/24 05:25:16;;;;;;;2.40;2.20;;;15.60;72.60;;;;;;5007451;28;20076;-54
2023/10/24 05:27:43;;;;;;;2.20;2.00;;;15.60;72.60;;;;;;5008489;28;20053;-52
2023/10/24 05:30:10;;;;;;;2.03;1.65;;;15.60;72.70;;;;;;5010383;28;20463;-51
2023/10/24 05:32:37;;;;;;;1.80;1.70;;;15.60;72.70;;;;;;5009369;28;20714;-54
2023/10/24 05:35:07;;;;;;;3.28;2.28;;;15.60;72.70;;;;;;5003758;28;20054;-53
2023/10/24 05:37:33;;;;;;;2.35;2.15;;;15.60;72.60;;;;;;5005380;28;20100;-53
2023/10/24 05:40:00;;;;;;;2.22;1.80;;;15.60;72.70;;;;;;5008935;28;20060;-50
2023/10/24 05:42:27;;;;;;;2.40;1.83;;;15.60;72.70;;;;;;5007054;28;20097;-51
2023/10/24 05:44:55;;;;;;;2.47;1.90;;;15.60;72.70;;;;;;5007010;28;20046;-50
2023/10/24 05:47:22;;;;;;;1.85;1.70;;;15.60;72.70;;;;;;5004706;28;20112;-51
2023/10/24 05:49:50;;;;;;;2.78;2.10;;;15.60;72.70;;;;;;5008136;28;20040;-52
2023/10/24 05:52:17;;;;;;;2.83;2.38;;;15.60;72.70;;;;;;5006357;28;20049;-50
2023/10/24 05:54:44;;;;;;;2.20;2.00;;;15.60;72.70;;;;;;4989048;28;20851;-49
2023/10/24 05:57:11;;;;;;;2.42;2.22;;;15.60;72.70;;;;;;5007157;28;20052;-49
2023/10/24 05:59:38;;;;;;;2.67;2.10;;;15.70;72.80;;;;;;5008257;28;20049;-54
2023/10/24 06:02:07;;;;;;;2.40;2.20;;;15.70;73.00;;;;;;5006188;28;20080;-53
2023/10/24 06:04:37;;;;;;;3.28;2.22;;;15.60;73.10;;;;;;5008822;28;20756;-50
2023/10/24 06:07:07;;;;;;;;;;;15.70;73.20;;;;;;5009148;28;20049;-50
2023/10/24 06:09:33;;;;;;;2.17;1.85;;;15.70;73.20;;;;;;5007023;28;19931;-50
2023/10/24 06:12:00;;;;;;;1.67;1.58;;;15.70;72.90;;;;;;5008956;28;20049;-50
2023/10/24 06:14:27;;;;;;;2.33;2.13;;;15.70;72.80;;;;;;5008787;28;20076;-54
2023/10/24 06:16:53;;;;;;;3.28;2.22;;;15.70;72.90;;;;;;5004974;28;20129;-54
2023/10/24 06:19:20;;;;;;;2.75;1.70;;;15.70;72.80;;;;;;5008856;28;20467;-50
2023/10/24 06:21:47;;;;;;;1.33;1.23;;;15.70;72.70;;;;;;5008677;28;20516;-51
2023/10/24 06:24:13;;;;;;;2.30;1.77;;;15.70;72.60;;;;;;5008883;28;20121;-50
2023/10/24 06:26:40;;;;;;;1.50;1.40;;;15.60;72.70;;;;;;5005662;28;20049;-53
2023/10/24 06:29:07;;;;;;;1.50;1.40;;;15.70;72.60;;;;;;5009321;28;20064;-54
2023/10/24 06:31:33;;;;;;;2.55;1.23;;;15.60;72.40;;;;;;5010133;28;20547;-53
2023/10/24 06:34:02;;;;;;;1.90;1.38;;;15.60;72.20;;;;;;5008187;28;20073;-55
2023/10/24 06:36:29;;;;;;;1.40;1.30;;;15.70;72.20;;;;;;5007745;28;20125;-52
2023/10/24 06:38:58;;;;;;;2.75;1.50;;;15.60;72.10;;;;;;5010033;28;20065;-51
2023/10/24 06:41:25;;;;;;;4.97;1.55;;;15.60;72.20;;;;;;5009036;28;20097;-52
2023/10/24 06:43:53;;;;;;;1.27;1.17;;;15.60;72.10;;;;;;5004592;28;20092;-52
2023/10/24 06:46:19;;;;;;;1.60;1.30;;;15.60;72.20;;;;;;5007288;28;20558;-51
2023/10/24 06:48:46;;;;;;;1.88;1.33;;;15.60;72.40;;;;;;5011892;28;20045;-50
2023/10/24 06:51:13;;;;;;;1.42;1.30;;;15.60;72.20;;;;;;5012575;28;20125;-54
2023/10/24 06:53:39;;;;;;;2.08;1.15;;;15.60;72.40;;;;;;5010673;28;20069;-52
2023/10/24 06:56:06;;;;;;;1.38;1.13;;;15.60;72.20;;;;;;5011429;28;20096;-51
2023/10/24 06:58:33;;;;;;;8.77;1.35;;;15.60;72.20;;;;;;5012350;28;20575;-54
2023/10/24 07:01:00;;;;;;;1.30;1.20;;;15.60;72.20;;;;;;5014050;28;20044;-50
2023/10/24 07:03:29;;;;;;;1.45;1.30;;;15.70;72.20;;;;;;5009952;28;20041;-50
2023/10/24 07:05:56;;;;;;;2.00;1.60;;;15.70;72.20;;;;;;5010164;28;20049;-51
2023/10/24 07:08:23;;;;;;;1.30;1.20;;;15.60;72.00;;;;;;5011970;28;20088;-55
2023/10/24 07:10:50;;;;;;;1.40;1.30;;;15.70;72.00;;;;;;5008472;28;20512;-57
2023/10/24 07:13:16;;;;;;;2.47;1.30;;;15.60;72.00;;;;;;5013822;28;20053;-49
2023/10/24 07:15:43;;;;;;;1.40;1.30;;;15.70;71.90;;;;;;5009669;28;20042;-51
2023/10/24 07:18:10;;;;;;;1.23;1.13;;;15.70;72.10;;;;;;5008955;28;20046;-51
2023/10/24 07:20:38;;;;;;;1.73;1.10;;;15.70;71.90;;;;;;5013256;28;20076;-52
2023/10/24 07:23:05;;;;;;;1.30;1.15;;;15.70;71.80;;;;;;5012281;28;20045;-56
2023/10/24 07:25:32;;;;;;;1.25;1.15;;;15.70;71.70;;;;;;5007982;28;20030;-52
2023/10/24 07:27:59;;;;;;;1.83;1.00;;;15.70;71.60;;;;;;5012119;28;20555;-55
2023/10/24 07:30:26;;;;;;;0.82;0.80;;;15.70;71.40;;;;;;5012253;28;20562;-52
2023/10/24 07:32:56;;;;;;;1.58;1.23;;;15.70;71.30;;;;;;5011741;28;20059;-54
2023/10/24 07:35:23;;;;;;;0.85;0.85;;;15.70;71.30;;;;;;4991683;28;20137;-54
2023/10/24 07:37:50;;;;;;;2.70;1.20;;;15.70;71.30;;;;;;5011771;28;20034;-54
2023/10/24 07:40:17;;;;;;;2.30;1.10;;;15.70;71.20;;;;;;5011589;28;20042;-53
2023/10/24 07:42:44;;;;;;;1.95;1.35;;;15.70;71.10;;;;;;5011714;28;20724;-50
2023/10/24 07:45:11;;;;;;;2.25;1.27;;;15.70;71.10;;;;;;5011407;28;20046;-52
2023/10/24 07:47:38;;;;;;;0.95;0.73;;;15.70;71.10;;;;;;5012017;28;20091;-54
2023/10/24 07:50:07;;;;;;;2.35;0.88;;;15.80;71.10;;;;;;5012740;28;20080;-53
2023/10/24 07:52:34;;;;;;;1.83;0.57;;;15.70;71.20;;;;;;5009731;28;20148;-52
2023/10/24 07:55:01;;;;;;;1.42;1.13;;;15.80;71.30;;;;;;5010107;28;20050;-51
2023/10/24 07:57:29;;;;;;;2.60;0.90;;;15.80;71.10;;;;;;5014692;28;20669;-52
2023/10/24 07:59:56;;;;;;;1.70;0.70;;;15.80;71.30;;;;;;5011465;28;20555;-52
2023/10/24 08:02:23;;;;;;;1.58;0.65;;;15.80;71.20;;;;;;5010500;28;20189;-52
2023/10/24 08:04:49;;;;;;;1.45;0.82;;;15.80;71.40;;;;;;5008605;28;20092;-53
2023/10/24 08:07:16;;;;;;;0.82;0.75;;;15.80;71.20;;;;;;5012363;28;20041;-51
2023/10/24 08:09:43;;;;;;;1.33;0.82;;;15.90;71.30;;;;;;5012031;28;20074;-51
2023/10/24 08:12:11;;;;;;;0.70;0.50;;;15.90;71.20;;;;;;5006157;28;20046;-51
2023/10/24 08:14:38;;;;;;;3.00;0.80;;;15.90;71.10;;;;;;5011319;28;20635;-52
2023/10/24 08:17:05;;;;;;;1.75;1.13;;;15.90;70.90;;;;;;5010206;28;20505;-53
2023/10/24 08:19:32;;;;;;;1.90;0.80;;;15.90;70.70;;;;;;5010714;28;20073;-53
2023/10/24 08:21:58;;;;;;;1.00;0.90;;;15.90;70.80;;;;;;5009376;28;20400;-53
2023/10/24 08:24:25;;;;;;;1.17;0.75;;;16.00;70.90;;;;;;5011255;28;20046;-51
2023/10/24 08:26:52;;;;;;;2.35;0.98;;;16.00;70.90;;;;;;5009147;28;20445;-53
2023/10/24 08:29:37;;;;;;;2.33;1.20;;;16.00;70.80;;;;;;5010784;28;20073;-54
2023/10/24 08:32:04;;;;;;;3.03;1.08;;;16.10;70.60;;;;;;5011120;28;20069;-52
2023/10/24 08:34:36;;;;;;;1.00;1.00;;;16.10;70.40;;;;;;5010423;28;20080;-50
2023/10/24 08:37:04;;;;;;;2.40;1.02;;;16.10;70.40;;;;;;5010225;28;20050;-52
2023/10/24 08:39:30;;;;;;;1.45;0.80;;;16.10;70.30;;;;;;5010632;28;20120;-50
2023/10/24 08:41:57;;;;;;;1.25;1.00;;;16.10;70.20;;;;;;5009808;28;20062;-49
2023/10/24 08:44:26;;;;;;;2.00;1.00;;;16.10;70.20;;;;;;5006572;28;20128;-53
2023/10/24 08:46:53;;;;;;;2.40;1.02;;;16.10;69.80;;;;;;5010223;28;20474;-52
2023/10/24 08:49:20;;;;;;;1.58;1.05;;;16.10;69.80;;;;;;5011265;28;20045;-54
2023/10/24 08:51:48;;;;;;;1.50;1.02;;;16.00;69.70;;;;;;5009587;28;20046;-50
2023/10/24 08:54:15;;;;;;;1.65;0.90;;;16.00;69.90;;;;;;5010770;28;20137;-53
2023/10/24 08:56:43;;;;;;;1.20;0.90;;;16.00;70.00;;;;;;4990956;28;20562;-55
2023/10/24 08:59:13;;;;;;;1.23;1.00;;;16.00;70.10;;;;;;5010891;28;20677;-55
2023/10/24 09:01:41;;;;;;;2.70;1.17;;;16.00;70.40;;;;;;5009964;28;20042;-53
2023/10/24 09:04:08;;;;;;;2.97;1.00;;;16.00;70.50;;;;;;5005539;28;20049;-50
2023/10/24 09:06:37;;;;;;;2.17;0.93;;;16.00;70.70;;;;;;5010706;28;20045;-54
2023/10/24 09:09:04;;;;;;;1.80;1.30;;;16.10;71.00;;;;;;5010642;28;20522;-51
2023/10/24 09:11:50;;;;;;;2.28;1.20;;;16.10;70.90;;;;;;5008077;28;20129;-50
2023/10/24 09:14:17;;;;;;;1.70;1.00;;;16.20;70.40;;;;;;5010184;28;20042;-54
2023/10/24 09:16:44;;;;;;;2.45;1.02;;;16.30;70.80;;;;;;5008255;28;20153;-51
2023/10/24 09:19:14;;;;;;;3.35;1.50;;;16.40;70.70;;;;;;5012249;28;20404;-50
2023/10/24 09:21:45;;;;;;;2.38;1.50;;;16.40;70.60;;;;;;5010160;28;20076;-51
2023/10/24 09:24:32;;;;;;;3.50;1.48;;;16.50;70.50;;;;;;5008188;28;20050;-52
2023/10/24 09:27:01;;;;;;;1.20;1.10;;;16.60;70.00;;;;;;4989372;28;20068;-51
2023/10/24 09:29:29;;;;;;;1.90;1.20;;;16.60;69.80;;;;;;5008173;28;20049;-51
2023/10/24 09:31:58;;;;;;;1.27;1.13;;;16.70;69.80;;;;;;5009793;28;20548;-52
2023/10/24 09:34:27;;;;;;;2.92;1.20;;;16.70;69.80;;;;;;5008831;28;20041;-52
2023/10/24 09:37:10;;;;;;;1.30;1.20;;;16.80;69.40;;;;;;4990345;28;20041;-50
2023/10/24 09:39:53;;;;;;;1.92;1.30;;;16.80;69.20;;;;;;5009117;28;20045;-50
2023/10/24 09:42:32;;;;;;;1.80;1.10;;;16.90;69.00;;;;;;5007512;28;20386;-55
2023/10/24 09:45:06;;;;;;;2.15;1.10;;;16.90;68.80;;;;;;5008422;28;20564;-54
2023/10/24 09:47:33;;;;;;;1.15;1.05;;;17.00;69.10;;;;;;5008816;28;20045;-51
2023/10/24 09:50:01;;;;;;;1.85;1.10;;;17.00;68.90;;;;;;5009578;28;20045;-51
2023/10/24 09:52:31;;;;;;;4.20;1.20;;;17.10;69.00;;;;;;5008084;28;20049;-53
2023/10/24 09:54:58;;;;;;;1.70;1.60;;;17.10;68.80;;;;;;5004954;28;20272;-50
2023/10/24 09:57:26;;;;;;;2.42;1.38;;;17.10;68.70;;;;;;5009394;28;20065;-54
2023/10/24 09:59:57;;;;;;;2.25;1.42;;;17.20;68.30;;;;;;5009964;28;20396;-50
2023/10/24 10:02:25;;;;;;;1.42;0.98;;;17.20;68.20;;;;;;5010127;28;20099;-57
2023/10/24 10:04:52;;;;;;;1.98;1.00;;;17.20;68.00;;;;;;5004424;28;20034;-51
2023/10/24 10:07:22;;;;;;;2.05;1.80;;;17.20;68.20;;;;;;5009518;28;20045;-51
2023/10/24 10:09:54;;;;;;;2.20;1.35;;;17.30;68.30;;;;;;5001766;28;20046;-51
2023/10/24 10:12:20;;;;;;;1.08;0.88;;;17.30;67.70;;;;;;5007155;28;20120;-50
2023/10/24 10:15:09;;;;;;;1.10;1.00;;;17.30;68.00;;;;;;5010002;28;20156;-50
2023/10/24 10:17:40;;;;;;;1.88;1.17;;;17.30;67.70;;;;;;5004553;28;20072;-51
2023/10/24 10:20:45;;;;;;;1.33;1.10;;;17.40;67.80;;;;;;5009240;28;20052;-53
2023/10/24 10:23:39;;;;;;;1.38;1.27;;;17.40;67.10;;;;;;5005024;28;20112;-53
2023/10/24 10:26:33;;;;;;;1.60;1.35;;;17.50;67.50;;;;;;5005194;28;20053;-54
2023/10/24 10:29:30;;;;;;;1.63;1.33;;;17.50;67.50;;;;;;5006088;28;20112;-52
2023/10/24 10:32:26;;;;;;;1.85;1.63;;;17.60;67.60;;;;;;5001778;28;20049;-54
2023/10/24 10:35:47;;;;;;;2.63;1.60;;;17.60;67.20;;;;;;4980448;28;20215;-53
2023/10/24 10:38:43;;;;;;;2.13;1.30;;;17.60;66.60;;;;;;5014543;28;20037;-54
2023/10/24 10:41:22;;;;;;;0.80;0.80;;;17.70;66.80;;;;;;5003058;28;20046;-53
2023/10/24 10:44:00;;;;;;;1.90;1.33;;;17.70;66.70;;;;;;5001922;28;20049;-52
2023/10/24 10:46:29;;;;;;;1.35;0.90;;;17.70;66.80;;;;;;5008955;28;20057;-54
2023/10/24 10:49:02;;;;;;;1.10;1.00;;;17.70;66.70;;;;;;5009552;28;20061;-53
2023/10/24 10:51:30;;;;;;;5.15;1.40;;;17.70;66.60;;;;;;5006851;28;20096;-53
2023/10/24 10:54:43;;;;;;;1.95;1.17;;;17.70;66.30;;;;;;5009478;28;20046;-55
2023/10/24 10:57:16;;;;;;;1.55;1.00;;;17.80;66.00;;;;;;5009371;28;20042;-53
2023/10/24 10:59:53;;;;;;;1.48;1.30;;;17.70;66.20;;;;;;5008212;28;20042;-56
2023/10/24 11:02:46;;;;;;;3.60;1.20;;;17.70;66.20;;;;;;5006628;28;20077;-52
2023/10/24 11:05:35;;;;;;;2.75;1.38;;;17.70;66.20;;;;;;5006510;28;20049;-55
2023/10/24 11:08:04;;;;;;;1.35;1.20;;;17.70;66.20;;;;;;5002301;28;20500;-55
2023/10/24 11:10:59;;;;;;;2.17;1.38;;;17.60;67.00;;;;;;5015871;28;20120;-55
2023/10/24 11:13:33;;;;;;;2.88;1.17;;;17.60;67.00;;;;;;5007939;28;20053;-55
2023/10/24 11:16:02;;;;;;;1.83;1.40;;;17.60;67.70;;;;;;5008543;28;20191;-52
2023/10/24 11:18:31;;;;;;;1.40;1.30;;;17.60;68.00;;;;;;5006518;28;20404;-55
2023/10/24 11:20:58;;;;;;;1.50;1.40;;;17.50;68.00;;;;;;5008145;28;20050;-55
2023/10/24 11:23:26;;;;;;;1.35;1.10;;;17.50;68.30;;;;;;5009534;28;20104;-53
2023/10/24 11:25:54;;;;;;;2.30;1.40;;;17.40;68.50;;;;;;5005829;28;20041;-53
2023/10/24 11:28:22;;;;;;;2.10;1.33;;;17.40;68.80;;;;;;5008099;28;20092;-54
2023/10/24 11:30:49;;;;;;;2.97;2.13;;;17.30;69.10;;;;;;5007846;28;20070;-52
2023/10/24 11:33:17;;;;;;;2.38;1.45;;;17.30;69.50;;;;;;4990363;28;20149;-55
2023/10/24 11:35:47;;;;;;;2.80;1.30;;;17.20;69.70;;;;;;5010678;28;20717;-51
2023/10/24 11:38:16;;;;;;;2.63;1.80;;;17.10;69.60;;;;;;5011716;28;20050;-55
2023/10/24 11:40:46;;;;;;;1.85;1.30;;;17.10;69.90;;;;;;5011590;28;20038;-50
2023/10/24 11:43:15;;;;;;;2.08;1.63;;;17.00;70.10;;;;;;5012726;28;20045;-55
2023/10/24 11:45:42;;;;;;;1.98;1.80;;;17.00;70.40;;;;;;5012088;28;20084;-51
2023/10/24 11:48:09;;;;;;;2.97;1.50;;;16.90;70.40;;;;;;5010991;28;20050;-53
2023/10/24 11:50:46;;;;;;;2.88;1.63;;;16.80;70.90;;;;;;4991136;28;20603;-50
2023/10/24 11:53:20;;;;;;;7.72;2.88;;;16.80;71.90;;;;;;5012265;28;20073;-55
2023/10/24 11:55:49;;;;;;;2.22;1.30;;;16.70;71.90;;;;;;5007596;28;20120;-52
2023/10/24 11:58:19;;;;;;;1.85;1.50;;;16.70;71.80;;;;;;5011848;28;20472;-51
2023/10/24 12:00:46;;;;;;;4.47;1.83;;;16.60;72.00;;;;;;5011670;28;20069;-53
2023/10/24 12:03:15;;;;;;;2.35;2.15;;;16.60;72.10;;;;;;5009872;28;20092;-51
2023/10/24 12:05:52;;;;;;;3.90;1.40;;;16.60;72.20;;;;;;5005112;28;20129;-51
2023/10/24 12:08:24;;;;;;;1.60;1.15;;;16.60;72.70;;;;;;5011306;28;20137;-53
2023/10/24 12:10:55;;;;;;;1.27;1.27;;;16.70;72.80;;;;;;5010998;28;20049;-55
2023/10/24 12:13:25;;;;;;;1.80;0.90;;;16.70;72.50;;;;;;5010891;28;20038;-52
2023/10/24 12:15:52;;;;;;;1.00;1.00;;;16.70;72.40;;;;;;5008131;28;20038;-54
2023/10/24 12:18:19;;;;;;;0.75;0.70;;;16.70;72.00;;;;;;5011178;28;20038;-55
2023/10/24 12:20:46;;;;;;;1.33;0.95;;;16.70;71.70;;;;;;5011962;28;20096;-54
2023/10/24 12:23:12;;;;;;;1.92;1.50;;;16.60;71.60;;;;;;5011000;28;20459;-55
2023/10/24 12:25:39;;;;;;;2.67;1.10;;;16.60;71.50;;;;;;5006720;28;20069;-50
2023/10/24 12:28:06;;;;;;;0.70;0.70;;;16.50;71.80;;;;;;5010577;28;20045;-51
2023/10/24 12:30:32;;;;;;;1.00;0.90;;;16.40;71.90;;;;;;5011075;28;20128;-52
2023/10/24 12:33:02;;;;;;;0.70;0.70;;;16.40;71.90;;;;;;5012019;28;20038;-56
2023/10/24 12:35:29;;;;;;;1.40;1.13;;;16.50;72.00;;;;;;5010148;28;20053;-53
2023/10/24 12:37:56;;;;;;;1.48;0.90;;;16.30;72.40;;;;;;5010563;28;20105;-55
2023/10/24 12:40:22;;;;;;;1.02;0.70;;;16.30;72.50;;;;;;4993903;28;20060;-55
2023/10/24 12:42:52;;;;;;;1.27;1.17;;;16.20;72.70;;;;;;5011590;28;20077;-54
2023/10/24 12:45:21;;;;;;;0.90;0.80;;;16.20;72.90;;;;;;5011428;28;20672;-55
2023/10/24 12:47:49;;;;;;;1.42;1.23;;;16.20;73.00;;;;;;5011569;28;20519;-55
2023/10/24 12:50:16;;;;;;;2.70;1.02;;;16.20;73.10;;;;;;5008971;28;20050;-53
2023/10/24 12:52:43;;;;;;;1.77;1.20;;;16.30;73.50;;;;;;5010028;28;20037;-52
2023/10/24 12:55:10;;;;;;;1.10;1.02;;;16.20;73.30;;;;;;5008847;28;20057;-51
2023/10/24 12:57:36;;;;;;;1.08;0.90;;;16.30;73.50;;;;;;5009661;28;20590;-54